00:54 Bike Brennbichl - Moetz
Ort Moetz Datum 29.08.2010 14:50:25
Kategorie MTB
Distanz 21,33 Kilometer Steigung 90,3 Meter Gefälle -135,6 Meter
Gesamt Zeit 01:49:51 Aktiv 01:49:51 Pause 00:00:00
Durchs. Tempo 11,7 km/h Tempo max. 42,9 km/h Tempo min. 0,0 km/h
Kalorien 0 Durchs. HF 141 BPM HF max. 183 BPM
Wetter 19 °C ChanceRain
Ausrüstung Schwalbe - Nobby Nic vorne
Schwalbe - Racing Ralph hinten
Shimano - HG-93 XT
Specialized - Stumpjumper Comp
SwissStop - Disc17 Avid Juicy
Specialized - BG S-Works MTB
Notiz Brennbichl - Moetz ... neben Raftingboot hergeradelt wegen Fotos ... garmin connect
Splits
Distanz (km) Gesamt Zeit Split Zeit Split Tempo Split Tempo Höhenprofil (m)
1,00 00:10:24 00:10:24 00:10:24 5,8 -11,14
2,00 00:17:12 00:06:48 00:06:48 8,8 3,43
3,00 00:20:50 00:03:38 00:03:38 16,5 3,29
4,00 00:24:35 00:03:45 00:03:45 16,0 -9,21
5,00 00:29:04 00:04:29 00:04:29 13,4 6,99
6,00 00:33:20 00:04:16 00:04:16 14,1 -18,61
7,00 00:35:49 00:02:29 00:02:29 24,2 32,99
8,00 00:42:03 00:06:14 00:06:14 9,6 -45,69
9,00 00:46:28 00:04:25 00:04:25 13,6 -0,63
10,00 00:52:46 00:06:18 00:06:18 9,5 -1,34
11,00 00:56:01 00:03:15 00:03:15 18,5 21,60
12,00 01:03:32 00:07:31 00:07:31 8,0 7,76
13,00 01:08:04 00:04:32 00:04:32 13,2 -11,85
14,00 01:13:46 00:05:42 00:05:42 10,5 -39,69
15,00 01:17:32 00:03:46 00:03:46 15,9 1,16
16,00 01:19:43 00:02:11 00:02:11 27,5 -4,57
17,00 01:21:50 00:02:07 00:02:07 28,3 2,50
18,00 01:42:26 00:20:36 00:20:36 2,9 -4,35
19,00 01:44:49 00:02:23 00:02:23 25,2 -4,16
20,00 01:46:51 00:02:02 00:02:02 29,5 -2,60
21,00 01:48:57 00:02:06 00:02:06 28,6 3,44